sensor_id;sensor_type;location;lat;lon;timestamp;temperature;humidity
68719;DHT22;55696;52.138;5.444;2023-01-31T00:01:39;8.60;69.70
68719;DHT22;55696;52.138;5.444;2023-01-31T00:04:08;8.50;70.30
68719;DHT22;55696;52.138;5.444;2023-01-31T00:06:39;8.50;70.80
68719;DHT22;55696;52.138;5.444;2023-01-31T00:09:08;8.50;70.60
68719;DHT22;55696;52.138;5.444;2023-01-31T00:11:35;8.40;70.50
68719;DHT22;55696;52.138;5.444;2023-01-31T00:14:04;8.40;69.90
68719;DHT22;55696;52.138;5.444;2023-01-31T00:16:32;8.30;70.50
68719;DHT22;55696;52.138;5.444;2023-01-31T00:18:59;8.30;70.50
68719;DHT22;55696;52.138;5.444;2023-01-31T00:21:28;8.20;69.80
68719;DHT22;55696;52.138;5.444;2023-01-31T00:23:56;8.30;71.30
68719;DHT22;55696;52.138;5.444;2023-01-31T00:26:26;8.30;70.70
68719;DHT22;55696;52.138;5.444;2023-01-31T00:28:54;8.30;71.00
68719;DHT22;55696;52.138;5.444;2023-01-31T00:31:23;8.30;70.60
68719;DHT22;55696;52.138;5.444;2023-01-31T00:33:51;8.30;70.90
68719;DHT22;55696;52.138;5.444;2023-01-31T00:36:25;8.30;70.80
68719;DHT22;55696;52.138;5.444;2023-01-31T00:38:54;8.30;71.40
68719;DHT22;55696;52.138;5.444;2023-01-31T00:41:23;8.30;71.10
68719;DHT22;55696;52.138;5.444;2023-01-31T00:43:50;8.20;70.80
68719;DHT22;55696;52.138;5.444;2023-01-31T00:46:17;8.10;70.10
68719;DHT22;55696;52.138;5.444;2023-01-31T00:48:46;8.00;70.20
68719;DHT22;55696;52.138;5.444;2023-01-31T00:51:13;7.90;70.00
68719;DHT22;55696;52.138;5.444;2023-01-31T00:53:40;7.80;70.20
68719;DHT22;55696;52.138;5.444;2023-01-31T00:56:21;7.80;71.00
68719;DHT22;55696;52.138;5.444;2023-01-31T00:58:49;7.70;73.20
68719;DHT22;55696;52.138;5.444;2023-01-31T01:01:27;7.70;71.40
68719;DHT22;55696;52.138;5.444;2023-01-31T01:03:56;7.70;73.00
68719;DHT22;55696;52.138;5.444;2023-01-31T01:06:23;7.60;71.70
68719;DHT22;55696;52.138;5.444;2023-01-31T01:08:50;7.60;71.30
68719;DHT22;55696;52.138;5.444;2023-01-31T01:11:20;7.50;71.60
68719;DHT22;55696;52.138;5.444;2023-01-31T01:13:47;7.50;72.70
68719;DHT22;55696;52.138;5.444;2023-01-31T01:16:21;7.40;72.00
68719;DHT22;55696;52.138;5.444;2023-01-31T01:18:48;7.40;72.50
68719;DHT22;55696;52.138;5.444;2023-01-31T01:21:21;7.50;71.50
68719;DHT22;55696;52.138;5.444;2023-01-31T01:23:48;7.50;73.20
68719;DHT22;55696;52.138;5.444;2023-01-31T01:26:17;7.60;71.70
68719;DHT22;55696;52.138;5.444;2023-01-31T01:28:45;7.60;72.00
68719;DHT22;55696;52.138;5.444;2023-01-31T01:31:13;7.70;71.50
68719;DHT22;55696;52.138;5.444;2023-01-31T01:33:42;7.70;71.60
68719;DHT22;55696;52.138;5.444;2023-01-31T01:36:12;7.70;71.70
68719;DHT22;55696;52.138;5.444;2023-01-31T01:38:41;7.80;72.10
68719;DHT22;55696;52.138;5.444;2023-01-31T01:41:08;7.90;71.00
68719;DHT22;55696;52.138;5.444;2023-01-31T01:46:28;7.90;72.20
68719;DHT22;55696;52.138;5.444;2023-01-31T01:49:33;7.90;72.40
68719;DHT22;55696;52.138;5.444;2023-01-31T01:52:04;8.10;72.50
68719;DHT22;55696;52.138;5.444;2023-01-31T01:54:45;8.00;72.10
68719;DHT22;55696;52.138;5.444;2023-01-31T01:57:16;8.20;71.60
68719;DHT22;55696;52.138;5.444;2023-01-31T01:59:48;8.10;71.80
68719;DHT22;55696;52.138;5.444;2023-01-31T02:02:17;8.20;71.90
68719;DHT22;55696;52.138;5.444;2023-01-31T02:04:46;8.20;70.10
68719;DHT22;55696;52.138;5.444;2023-01-31T02:07:14;8.20;71.30
68719;DHT22;55696;52.138;5.444;2023-01-31T02:09:54;8.30;70.00
68719;DHT22;55696;52.138;5.444;2023-01-31T02:12:21;8.30;71.30
68719;DHT22;55696;52.138;5.444;2023-01-31T02:14:49;8.30;70.20
68719;DHT22;55696;52.138;5.444;2023-01-31T02:17:19;8.40;70.30
68719;DHT22;55696;52.138;5.444;2023-01-31T02:22:48;8.60;71.30
68719;DHT22;55696;52.138;5.444;2023-01-31T02:25:30;8.70;71.70
68719;DHT22;55696;52.138;5.444;2023-01-31T02:37:22;8.80;70.80
68719;DHT22;55696;52.138;5.444;2023-01-31T02:40:10;8.90;71.20
68719;DHT22;55696;52.138;5.444;2023-01-31T02:42:58;8.80;72.10
68719;DHT22;55696;52.138;5.444;2023-01-31T02:45:44;8.80;71.40
68719;DHT22;55696;52.138;5.444;2023-01-31T02:48:33;8.90;71.60
68719;DHT22;55696;52.138;5.444;2023-01-31T02:51:20;8.90;70.60
68719;DHT22;55696;52.138;5.444;2023-01-31T02:53:55;8.80;71.80
68719;DHT22;55696;52.138;5.444;2023-01-31T02:56:32;8.70;71.10
68719;DHT22;55696;52.138;5.444;2023-01-31T02:59:07;8.80;71.80
68719;DHT22;55696;52.138;5.444;2023-01-31T03:01:42;8.90;69.20
68719;DHT22;55696;52.138;5.444;2023-01-31T03:04:12;9.00;71.70
68719;DHT22;55696;52.138;5.444;2023-01-31T03:06:49;9.00;71.80
68719;DHT22;55696;52.138;5.444;2023-01-31T03:14:50;9.00;71.50
68719;DHT22;55696;52.138;5.444;2023-01-31T03:17:59;9.00;70.70
68719;DHT22;55696;52.138;5.444;2023-01-31T03:20:29;9.00;71.90
68719;DHT22;55696;52.138;5.444;2023-01-31T03:23:04;9.00;70.10
68719;DHT22;55696;52.138;5.444;2023-01-31T03:25:35;8.90;71.80
68719;DHT22;55696;52.138;5.444;2023-01-31T03:28:08;8.80;71.90
68719;DHT22;55696;52.138;5.444;2023-01-31T03:30:46;8.90;72.00
68719;DHT22;55696;52.138;5.444;2023-01-31T03:33:16;8.90;72.50
68719;DHT22;55696;52.138;5.444;2023-01-31T03:35:50;8.90;70.60
68719;DHT22;55696;52.138;5.444;2023-01-31T03:38:26;8.90;72.50
68719;DHT22;55696;52.138;5.444;2023-01-31T03:41:05;8.90;72.90
68719;DHT22;55696;52.138;5.444;2023-01-31T03:46:16;9.00;70.70
68719;DHT22;55696;52.138;5.444;2023-01-31T03:48:49;8.90;73.20
68719;DHT22;55696;52.138;5.444;2023-01-31T03:51:22;8.90;72.80
68719;DHT22;55696;52.138;5.444;2023-01-31T03:54:05;8.90;73.20
68719;DHT22;55696;52.138;5.444;2023-01-31T03:56:43;8.90;72.70
68719;DHT22;55696;52.138;5.444;2023-01-31T03:59:14;9.00;73.90
68719;DHT22;55696;52.138;5.444;2023-01-31T04:01:46;9.00;73.30
68719;DHT22;55696;52.138;5.444;2023-01-31T04:04:27;9.10;73.40
68719;DHT22;55696;52.138;5.444;2023-01-31T04:07:00;9.10;73.10
68719;DHT22;55696;52.138;5.444;2023-01-31T04:09:29;9.10;72.90
68719;DHT22;55696;52.138;5.444;2023-01-31T04:11:59;9.10;71.70
68719;DHT22;55696;52.138;5.444;2023-01-31T04:14:27;9.00;73.30
68719;DHT22;55696;52.138;5.444;2023-01-31T04:16:54;9.10;72.70
68719;DHT22;55696;52.138;5.444;2023-01-31T04:19:21;9.10;71.90
68719;DHT22;55696;52.138;5.444;2023-01-31T04:21:48;9.10;71.80
68719;DHT22;55696;52.138;5.444;2023-01-31T04:24:14;9.10;71.90
68719;DHT22;55696;52.138;5.444;2023-01-31T04:26:41;9.10;72.10
68719;DHT22;55696;52.138;5.444;2023-01-31T04:29:08;9.00;71.90
68719;DHT22;55696;52.138;5.444;2023-01-31T04:31:35;9.10;72.20
68719;DHT22;55696;52.138;5.444;2023-01-31T04:34:02;9.00;72.10
68719;DHT22;55696;52.138;5.444;2023-01-31T04:36:29;9.10;72.30
68719;DHT22;55696;52.138;5.444;2023-01-31T04:38:55;9.10;72.10
68719;DHT22;55696;52.138;5.444;2023-01-31T04:41:22;9.10;72.20
68719;DHT22;55696;52.138;5.444;2023-01-31T04:43:49;9.10;72.10
68719;DHT22;55696;52.138;5.444;2023-01-31T04:46:16;9.20;72.30
68719;DHT22;55696;52.138;5.444;2023-01-31T04:48:42;9.20;72.30
68719;DHT22;55696;52.138;5.444;2023-01-31T04:51:09;9.20;72.10
68719;DHT22;55696;52.138;5.444;2023-01-31T04:53:36;9.20;72.00
68719;DHT22;55696;52.138;5.444;2023-01-31T04:56:03;9.30;71.90
68719;DHT22;55696;52.138;5.444;2023-01-31T04:58:31;9.30;72.30
68719;DHT22;55696;52.138;5.444;2023-01-31T05:00:58;9.40;72.10
68719;DHT22;55696;52.138;5.444;2023-01-31T05:03:25;9.30;72.00
68719;DHT22;55696;52.138;5.444;2023-01-31T05:05:52;9.40;72.00
68719;DHT22;55696;52.138;5.444;2023-01-31T05:08:18;9.40;72.00
68719;DHT22;55696;52.138;5.444;2023-01-31T05:10:45;9.40;72.00
68719;DHT22;55696;52.138;5.444;2023-01-31T05:13:12;10.00;72.30
68719;DHT22;55696;52.138;5.444;2023-01-31T05:15:40;9.30;71.90
68719;DHT22;55696;52.138;5.444;2023-01-31T05:18:06;9.30;71.80
68719;DHT22;55696;52.138;5.444;2023-01-31T05:20:36;9.30;71.80
68719;DHT22;55696;52.138;5.444;2023-01-31T05:23:05;9.30;73.50
68719;DHT22;55696;52.138;5.444;2023-01-31T05:25:34;9.40;72.90
68719;DHT22;55696;52.138;5.444;2023-01-31T05:28:02;9.30;73.30
68719;DHT22;55696;52.138;5.444;2023-01-31T05:30:29;9.40;72.40
68719;DHT22;55696;52.138;5.444;2023-01-31T05:32:56;10.10;72.90
68719;DHT22;55696;52.138;5.444;2023-01-31T05:35:22;9.40;72.30
68719;DHT22;55696;52.138;5.444;2023-01-31T05:37:51;9.30;72.10
68719;DHT22;55696;52.138;5.444;2023-01-31T05:40:18;9.50;72.30
68719;DHT22;55696;52.138;5.444;2023-01-31T05:42:48;9.40;72.10
68719;DHT22;55696;52.138;5.444;2023-01-31T05:45:15;9.40;72.30
68719;DHT22;55696;52.138;5.444;2023-01-31T05:47:43;9.40;72.40
68719;DHT22;55696;52.138;5.444;2023-01-31T05:50:11;9.40;72.30
68719;DHT22;55696;52.138;5.444;2023-01-31T05:52:38;9.40;72.20
68719;DHT22;55696;52.138;5.444;2023-01-31T05:55:05;9.40;72.70
68719;DHT22;55696;52.138;5.444;2023-01-31T05:57:32;9.40;73.00
68719;DHT22;55696;52.138;5.444;2023-01-31T05:59:59;9.40;72.40
68719;DHT22;55696;52.138;5.444;2023-01-31T06:02:26;9.50;72.40
68719;DHT22;55696;52.138;5.444;2023-01-31T06:04:53;9.40;72.50
68719;DHT22;55696;52.138;5.444;2023-01-31T06:07:20;9.40;72.40
68719;DHT22;55696;52.138;5.444;2023-01-31T06:09:49;9.40;72.40
68719;DHT22;55696;52.138;5.444;2023-01-31T06:12:15;9.40;72.40
68719;DHT22;55696;52.138;5.444;2023-01-31T06:14:42;9.40;72.70
68719;DHT22;55696;52.138;5.444;2023-01-31T06:17:11;9.70;72.80
68719;DHT22;55696;52.138;5.444;2023-01-31T06:19:38;9.40;73.00
68719;DHT22;55696;52.138;5.444;2023-01-31T06:22:05;9.50;72.80
68719;DHT22;55696;52.138;5.444;2023-01-31T06:24:32;9.40;72.70
68719;DHT22;55696;52.138;5.444;2023-01-31T06:26:59;9.40;73.00
68719;DHT22;55696;52.138;5.444;2023-01-31T06:29:25;9.40;72.80
68719;DHT22;55696;52.138;5.444;2023-01-31T06:31:52;9.40;73.10
68719;DHT22;55696;52.138;5.444;2023-01-31T06:34:19;9.40;73.30
68719;DHT22;55696;52.138;5.444;2023-01-31T06:36:46;9.40;73.60
68719;DHT22;55696;52.138;5.444;2023-01-31T06:39:13;9.50;73.00
68719;DHT22;55696;52.138;5.444;2023-01-31T06:41:40;9.40;73.50
68719;DHT22;55696;52.138;5.444;2023-01-31T06:44:07;9.40;73.10
68719;DHT22;55696;52.138;5.444;2023-01-31T06:46:34;9.40;73.10
68719;DHT22;55696;52.138;5.444;2023-01-31T06:49:02;9.30;74.40
68719;DHT22;55696;52.138;5.444;2023-01-31T06:51:28;9.30;73.50
68719;DHT22;55696;52.138;5.444;2023-01-31T06:53:56;9.30;73.50
68719;DHT22;55696;52.138;5.444;2023-01-31T06:56:22;9.30;74.30
68719;DHT22;55696;52.138;5.444;2023-01-31T06:58:49;9.30;73.50
68719;DHT22;55696;52.138;5.444;2023-01-31T07:01:16;9.40;73.30
68719;DHT22;55696;52.138;5.444;2023-01-31T07:03:43;9.90;73.60
68719;DHT22;55696;52.138;5.444;2023-01-31T07:06:10;9.40;73.20
68719;DHT22;55696;52.138;5.444;2023-01-31T07:08:37;9.40;73.30
68719;DHT22;55696;52.138;5.444;2023-01-31T07:11:04;9.50;73.50
68719;DHT22;55696;52.138;5.444;2023-01-31T07:13:31;10.10;73.80
68719;DHT22;55696;52.138;5.444;2023-01-31T07:15:58;9.40;73.20
68719;DHT22;55696;52.138;5.444;2023-01-31T07:18:25;9.50;73.10
68719;DHT22;55696;52.138;5.444;2023-01-31T07:20:51;9.50;73.20
68719;DHT22;55696;52.138;5.444;2023-01-31T07:23:18;9.40;73.10
68719;DHT22;55696;52.138;5.444;2023-01-31T07:25:45;9.50;73.10
68719;DHT22;55696;52.138;5.444;2023-01-31T07:28:12;9.40;73.20
68719;DHT22;55696;52.138;5.444;2023-01-31T07:30:39;9.40;73.20
68719;DHT22;55696;52.138;5.444;2023-01-31T07:33:12;9.30;73.10
68719;DHT22;55696;52.138;5.444;2023-01-31T07:35:41;9.40;75.20
68719;DHT22;55696;52.138;5.444;2023-01-31T07:38:08;9.40;74.70
68719;DHT22;55696;52.138;5.444;2023-01-31T07:40:37;9.40;73.20
68719;DHT22;55696;52.138;5.444;2023-01-31T07:43:05;9.30;73.20
68719;DHT22;55696;52.138;5.444;2023-01-31T07:45:32;9.40;73.30
68719;DHT22;55696;52.138;5.444;2023-01-31T07:48:00;9.30;73.50
68719;DHT22;55696;52.138;5.444;2023-01-31T07:50:27;9.40;73.30
68719;DHT22;55696;52.138;5.444;2023-01-31T07:52:57;9.40;74.00
68719;DHT22;55696;52.138;5.444;2023-01-31T07:55:25;9.40;74.60
68719;DHT22;55696;52.138;5.444;2023-01-31T07:57:51;9.50;74.20
68719;DHT22;55696;52.138;5.444;2023-01-31T08:00:19;9.50;73.20
68719;DHT22;55696;52.138;5.444;2023-01-31T08:03:04;9.60;74.60
68719;DHT22;55696;52.138;5.444;2023-01-31T08:05:50;9.60;73.00
68719;DHT22;55696;52.138;5.444;2023-01-31T08:08:17;9.60;73.30
68719;DHT22;55696;52.138;5.444;2023-01-31T08:10:43;9.60;73.20
68719;DHT22;55696;52.138;5.444;2023-01-31T08:13:12;9.60;73.30
68719;DHT22;55696;52.138;5.444;2023-01-31T08:15:39;9.60;73.30
68719;DHT22;55696;52.138;5.444;2023-01-31T08:18:06;9.70;73.20
68719;DHT22;55696;52.138;5.444;2023-01-31T08:20:33;9.70;73.20
68719;DHT22;55696;52.138;5.444;2023-01-31T08:23:03;9.70;73.20
68719;DHT22;55696;52.138;5.444;2023-01-31T08:25:30;9.60;73.30
68719;DHT22;55696;52.138;5.444;2023-01-31T08:27:58;9.70;73.20
68719;DHT22;55696;52.138;5.444;2023-01-31T08:30:27;9.80;73.70
68719;DHT22;55696;52.138;5.444;2023-01-31T08:32:55;9.80;73.80
68719;DHT22;55696;52.138;5.444;2023-01-31T08:35:23;9.90;73.60
68719;DHT22;55696;52.138;5.444;2023-01-31T08:37:50;9.90;73.10
68719;DHT22;55696;52.138;5.444;2023-01-31T08:40:17;9.90;72.60
68719;DHT22;55696;52.138;5.444;2023-01-31T08:42:53;9.90;72.60
68719;DHT22;55696;52.138;5.444;2023-01-31T08:45:20;10.00;74.60
68719;DHT22;55696;52.138;5.444;2023-01-31T08:47:47;10.00;72.10
68719;DHT22;55696;52.138;5.444;2023-01-31T08:50:18;10.00;72.20
68719;DHT22;55696;52.138;5.444;2023-01-31T08:52:54;10.10;72.00
68719;DHT22;55696;52.138;5.444;2023-01-31T08:55:22;10.70;72.10
68719;DHT22;55696;52.138;5.444;2023-01-31T08:57:50;10.30;72.40
68719;DHT22;55696;52.138;5.444;2023-01-31T09:00:25;10.20;72.40
68719;DHT22;55696;52.138;5.444;2023-01-31T09:02:57;10.20;71.50
68719;DHT22;55696;52.138;5.444;2023-01-31T09:05:30;10.20;73.60
68719;DHT22;55696;52.138;5.444;2023-01-31T09:07:57;10.20;73.50
68719;DHT22;55696;52.138;5.444;2023-01-31T09:10:24;10.10;72.50
68719;DHT22;55696;52.138;5.444;2023-01-31T09:12:52;10.10;71.70
68719;DHT22;55696;52.138;5.444;2023-01-31T09:15:19;10.20;71.80
68719;DHT22;55696;52.138;5.444;2023-01-31T09:17:46;10.20;71.70
68719;DHT22;55696;52.138;5.444;2023-01-31T09:20:13;10.20;71.80
68719;DHT22;55696;52.138;5.444;2023-01-31T09:22:40;10.50;71.80
68719;DHT22;55696;52.138;5.444;2023-01-31T09:25:07;10.30;71.60
68719;DHT22;55696;52.138;5.444;2023-01-31T09:27:35;10.40;72.10
68719;DHT22;55696;52.138;5.444;2023-01-31T09:30:08;10.30;72.30
68719;DHT22;55696;52.138;5.444;2023-01-31T09:32:35;10.40;73.30
68719;DHT22;55696;52.138;5.444;2023-01-31T09:35:04;10.40;71.40
68719;DHT22;55696;52.138;5.444;2023-01-31T09:37:31;10.50;71.50
68719;DHT22;55696;52.138;5.444;2023-01-31T09:39:58;10.50;71.00
68719;DHT22;55696;52.138;5.444;2023-01-31T09:42:30;10.50;70.90
68719;DHT22;55696;52.138;5.444;2023-01-31T09:45:05;10.50;72.70
68719;DHT22;55696;52.138;5.444;2023-01-31T09:47:35;10.50;72.70
68719;DHT22;55696;52.138;5.444;2023-01-31T09:50:11;10.40;72.60
68719;DHT22;55696;52.138;5.444;2023-01-31T09:52:40;10.40;72.50
68719;DHT22;55696;52.138;5.444;2023-01-31T09:55:18;10.40;71.00
68719;DHT22;55696;52.138;5.444;2023-01-31T09:57:51;10.50;72.70
68719;DHT22;55696;52.138;5.444;2023-01-31T10:03:38;10.40;73.20
68719;DHT22;55696;52.138;5.444;2023-01-31T10:06:24;10.50;70.90
68719;DHT22;55696;52.138;5.444;2023-01-31T10:09:06;10.40;73.40
68719;DHT22;55696;52.138;5.444;2023-01-31T10:11:43;10.40;73.40
68719;DHT22;55696;52.138;5.444;2023-01-31T10:14:35;10.50;72.70
68719;DHT22;55696;52.138;5.444;2023-01-31T10:17:25;10.40;73.60
68719;DHT22;55696;52.138;5.444;2023-01-31T10:20:21;10.40;74.20
68719;DHT22;55696;52.138;5.444;2023-01-31T10:22:54;10.40;73.70
68719;DHT22;55696;52.138;5.444;2023-01-31T10:25:33;10.40;73.50
68719;DHT22;55696;52.138;5.444;2023-01-31T10:28:13;10.60;73.60
68719;DHT22;55696;52.138;5.444;2023-01-31T10:30:54;10.60;70.90
68719;DHT22;55696;52.138;5.444;2023-01-31T10:33:50;10.70;70.80
68719;DHT22;55696;52.138;5.444;2023-01-31T10:36:37;10.70;72.90
68719;DHT22;55696;52.138;5.444;2023-01-31T10:39:09;10.70;73.80
68719;DHT22;55696;52.138;5.444;2023-01-31T10:42:04;10.70;71.20
68719;DHT22;55696;52.138;5.444;2023-01-31T10:47:15;10.80;73.50
68719;DHT22;55696;52.138;5.444;2023-01-31T10:49:47;11.00;72.00
68719;DHT22;55696;52.138;5.444;2023-01-31T10:52:24;11.10;72.70
68719;DHT22;55696;52.138;5.444;2023-01-31T10:57:46;11.10;72.10
68719;DHT22;55696;52.138;5.444;2023-01-31T11:00:19;11.00;71.20
68719;DHT22;55696;52.138;5.444;2023-01-31T11:02:48;11.00;72.70
68719;DHT22;55696;52.138;5.444;2023-01-31T11:05:18;11.10;71.10
68719;DHT22;55696;52.138;5.444;2023-01-31T11:07:46;10.90;72.80
68719;DHT22;55696;52.138;5.444;2023-01-31T11:10:25;11.00;71.80
68719;DHT22;55696;52.138;5.444;2023-01-31T11:12:58;10.90;73.90
68719;DHT22;55696;52.138;5.444;2023-01-31T11:15:34;10.90;73.70
68719;DHT22;55696;52.138;5.444;2023-01-31T11:18:01;10.80;73.10
68719;DHT22;55696;52.138;5.444;2023-01-31T11:20:43;11.00;72.50
68719;DHT22;55696;52.138;5.444;2023-01-31T11:23:13;10.90;74.00
68719;DHT22;55696;52.138;5.444;2023-01-31T11:25:48;11.00;73.60
68719;DHT22;55696;52.138;5.444;2023-01-31T11:28:42;10.80;74.30
68719;DHT22;55696;52.138;5.444;2023-01-31T11:31:20;10.80;74.90
68719;DHT22;55696;52.138;5.444;2023-01-31T11:34:05;11.60;75.90
68719;DHT22;55696;52.138;5.444;2023-01-31T11:36:43;10.80;76.00
68719;DHT22;55696;52.138;5.444;2023-01-31T11:41:52;10.80;76.00
68719;DHT22;55696;52.138;5.444;2023-01-31T11:44:21;10.70;74.30
68719;DHT22;55696;52.138;5.444;2023-01-31T11:46:52;10.70;75.10
68719;DHT22;55696;52.138;5.444;2023-01-31T11:51:49;10.70;76.00
68719;DHT22;55696;52.138;5.444;2023-01-31T11:54:19;10.80;75.10
68719;DHT22;55696;52.138;5.444;2023-01-31T11:56:46;10.80;76.10
68719;DHT22;55696;52.138;5.444;2023-01-31T11:59:19;10.80;74.90
68719;DHT22;55696;52.138;5.444;2023-01-31T12:01:50;11.50;77.20
68719;DHT22;55696;52.138;5.444;2023-01-31T12:04:22;10.90;76.40
68719;DHT22;55696;52.138;5.444;2023-01-31T12:07:19;11.00;76.60
68719;DHT22;55696;52.138;5.444;2023-01-31T12:09:46;10.90;77.10
68719;DHT22;55696;52.138;5.444;2023-01-31T12:12:27;10.90;75.10
68719;DHT22;55696;52.138;5.444;2023-01-31T12:15:02;10.80;77.30
68719;DHT22;55696;52.138;5.444;2023-01-31T12:17:32;10.90;76.90
68719;DHT22;55696;52.138;5.444;2023-01-31T12:23:04;11.00;77.00
68719;DHT22;55696;52.138;5.444;2023-01-31T12:28:38;11.10;77.00
68719;DHT22;55696;52.138;5.444;2023-01-31T12:39:36;11.40;73.40
68719;DHT22;55696;52.138;5.444;2023-01-31T12:45:16;11.50;75.20
68719;DHT22;55696;52.138;5.444;2023-01-31T12:50:27;11.70;75.30
68719;DHT22;55696;52.138;5.444;2023-01-31T12:56:01;12.00;74.40
68719;DHT22;55696;52.138;5.444;2023-01-31T12:59:01;12.00;73.50
68719;DHT22;55696;52.138;5.444;2023-01-31T13:02:00;12.10;73.60
68719;DHT22;55696;52.138;5.444;2023-01-31T13:07:09;12.30;73.10
68719;DHT22;55696;52.138;5.444;2023-01-31T13:09:37;12.30;72.00
68719;DHT22;55696;52.138;5.444;2023-01-31T13:12:08;12.20;70.50
68719;DHT22;55696;52.138;5.444;2023-01-31T13:14:40;12.20;73.20
68719;DHT22;55696;52.138;5.444;2023-01-31T13:17:11;12.10;73.20
68719;DHT22;55696;52.138;5.444;2023-01-31T13:19:47;12.20;72.50
68719;DHT22;55696;52.138;5.444;2023-01-31T13:22:26;12.30;72.10
68719;DHT22;55696;52.138;5.444;2023-01-31T13:25:28;12.90;73.10
68719;DHT22;55696;52.138;5.444;2023-01-31T13:28:02;12.30;72.80
68719;DHT22;55696;52.138;5.444;2023-01-31T13:30:47;12.40;71.00
68719;DHT22;55696;52.138;5.444;2023-01-31T13:39:00;12.40;72.20
68719;DHT22;55696;52.138;5.444;2023-01-31T13:41:30;12.40;71.70
68719;DHT22;55696;52.138;5.444;2023-01-31T13:43:58;12.40;70.90
68719;DHT22;55696;52.138;5.444;2023-01-31T13:46:45;12.60;69.90
68719;DHT22;55696;52.138;5.444;2023-01-31T13:49:26;12.50;71.50
68719;DHT22;55696;52.138;5.444;2023-01-31T13:51:58;12.70;70.50
68719;DHT22;55696;52.138;5.444;2023-01-31T13:54:32;12.60;70.40
68719;DHT22;55696;52.138;5.444;2023-01-31T13:57:00;12.50;70.20
68719;DHT22;55696;52.138;5.444;2023-01-31T13:59:33;13.10;69.60
68719;DHT22;55696;52.138;5.444;2023-01-31T14:02:04;12.60;70.60
68719;DHT22;55696;52.138;5.444;2023-01-31T14:04:35;12.40;69.90
68719;DHT22;55696;52.138;5.444;2023-01-31T14:10:24;12.50;68.30
68719;DHT22;55696;52.138;5.444;2023-01-31T14:12:34;12.50;70.20
68719;DHT22;55696;52.138;5.444;2023-01-31T14:15:19;12.50;70.00
68719;DHT22;55696;52.138;5.444;2023-01-31T14:20:27;12.40;70.00
68719;DHT22;55696;52.138;5.444;2023-01-31T14:23:29;12.40;69.90
68719;DHT22;55696;52.138;5.444;2023-01-31T14:25:57;12.60;69.80
68719;DHT22;55696;52.138;5.444;2023-01-31T14:28:24;12.40;67.40
68719;DHT22;55696;52.138;5.444;2023-01-31T14:30:53;12.40;68.00
68719;DHT22;55696;52.138;5.444;2023-01-31T14:33:22;12.40;68.90
68719;DHT22;55696;52.138;5.444;2023-01-31T14:36:06;12.50;69.10
68719;DHT22;55696;52.138;5.444;2023-01-31T14:41:34;12.50;69.40
68719;DHT22;55696;52.138;5.444;2023-01-31T14:58:03;12.40;68.40
68719;DHT22;55696;52.138;5.444;2023-01-31T15:00:33;12.30;68.60
68719;DHT22;55696;52.138;5.444;2023-01-31T15:03:22;12.40;68.30
68719;DHT22;55696;52.138;5.444;2023-01-31T15:06:04;12.40;68.80
68719;DHT22;55696;52.138;5.444;2023-01-31T15:08:36;12.30;69.00
68719;DHT22;55696;52.138;5.444;2023-01-31T15:11:39;13.00;69.40
68719;DHT22;55696;52.138;5.444;2023-01-31T15:17:20;12.20;69.50
68719;DHT22;55696;52.138;5.444;2023-01-31T15:20:13;12.40;69.80
68719;DHT22;55696;52.138;5.444;2023-01-31T15:22:43;12.30;66.70
68719;DHT22;55696;52.138;5.444;2023-01-31T15:25:32;12.30;67.90
68719;DHT22;55696;52.138;5.444;2023-01-31T15:28:00;12.40;69.10
68719;DHT22;55696;52.138;5.444;2023-01-31T15:30:31;12.30;67.60
68719;DHT22;55696;52.138;5.444;2023-01-31T15:33:03;12.40;68.80
68719;DHT22;55696;52.138;5.444;2023-01-31T15:35:48;12.40;68.90
68719;DHT22;55696;52.138;5.444;2023-01-31T15:43:47;12.40;68.80
68719;DHT22;55696;52.138;5.444;2023-01-31T15:48:50;12.30;68.50
68719;DHT22;55696;52.138;5.444;2023-01-31T15:51:17;12.20;66.50
68719;DHT22;55696;52.138;5.444;2023-01-31T15:53:44;12.10;66.90
68719;DHT22;55696;52.138;5.444;2023-01-31T15:56:23;12.10;66.10
68719;DHT22;55696;52.138;5.444;2023-01-31T15:58:53;11.90;67.90
68719;DHT22;55696;52.138;5.444;2023-01-31T16:01:21;12.00;67.30
68719;DHT22;55696;52.138;5.444;2023-01-31T16:03:54;11.90;66.10
68719;DHT22;55696;52.138;5.444;2023-01-31T16:06:33;12.00;67.80
68719;DHT22;55696;52.138;5.444;2023-01-31T16:09:03;12.00;66.90
68719;DHT22;55696;52.138;5.444;2023-01-31T16:11:32;11.90;68.10
68719;DHT22;55696;52.138;5.444;2023-01-31T16:14:04;12.00;67.10
68719;DHT22;55696;52.138;5.444;2023-01-31T16:16:33;12.00;68.00
68719;DHT22;55696;52.138;5.444;2023-01-31T16:19:01;11.90;67.00
68719;DHT22;55696;52.138;5.444;2023-01-31T16:21:30;11.90;66.80
68719;DHT22;55696;52.138;5.444;2023-01-31T16:24:23;12.20;66.30
68719;DHT22;55696;52.138;5.444;2023-01-31T16:27:08;12.00;68.30
68719;DHT22;55696;52.138;5.444;2023-01-31T16:29:46;11.80;69.10
68719;DHT22;55696;52.138;5.444;2023-01-31T16:34:53;11.70;68.90
68719;DHT22;55696;52.138;5.444;2023-01-31T16:40:20;11.50;69.30
68719;DHT22;55696;52.138;5.444;2023-01-31T16:42:48;11.50;69.60
68719;DHT22;55696;52.138;5.444;2023-01-31T16:45:32;11.40;67.60
68719;DHT22;55696;52.138;5.444;2023-01-31T16:48:20;11.30;69.80
68719;DHT22;55696;52.138;5.444;2023-01-31T16:50:50;11.80;69.60
68719;DHT22;55696;52.138;5.444;2023-01-31T16:58:55;11.20;68.30
68719;DHT22;55696;52.138;5.444;2023-01-31T17:01:30;11.20;66.80
68719;DHT22;55696;52.138;5.444;2023-01-31T17:06:32;11.20;67.10
68719;DHT22;55696;52.138;5.444;2023-01-31T17:08:59;11.10;66.00
68719;DHT22;55696;52.138;5.444;2023-01-31T17:11:27;11.10;66.80
68719;DHT22;55696;52.138;5.444;2023-01-31T17:14:08;11.10;64.40
68719;DHT22;55696;52.138;5.444;2023-01-31T17:16:35;11.00;64.90
68719;DHT22;55696;52.138;5.444;2023-01-31T17:19:02;11.00;64.20
68719;DHT22;55696;52.138;5.444;2023-01-31T17:21:31;11.00;64.30
68719;DHT22;55696;52.138;5.444;2023-01-31T17:24:00;11.00;65.60
68719;DHT22;55696;52.138;5.444;2023-01-31T17:26:27;10.90;63.70
68719;DHT22;55696;52.138;5.444;2023-01-31T17:28:56;11.00;63.90
68719;DHT22;55696;52.138;5.444;2023-01-31T17:31:28;11.00;63.60
68719;DHT22;55696;52.138;5.444;2023-01-31T17:33:56;11.00;63.40
68719;DHT22;55696;52.138;5.444;2023-01-31T17:36:23;11.00;62.90
68719;DHT22;55696;52.138;5.444;2023-01-31T17:38:50;11.00;62.70
68719;DHT22;55696;52.138;5.444;2023-01-31T17:41:20;11.00;62.80
68719;DHT22;55696;52.138;5.444;2023-01-31T17:43:49;10.90;63.60
68719;DHT22;55696;52.138;5.444;2023-01-31T17:46:17;10.90;62.90
68719;DHT22;55696;52.138;5.444;2023-01-31T17:48:44;10.80;64.30
68719;DHT22;55696;52.138;5.444;2023-01-31T17:51:12;10.90;63.50
68719;DHT22;55696;52.138;5.444;2023-01-31T17:53:39;10.80;63.80
68719;DHT22;55696;52.138;5.444;2023-01-31T17:56:16;10.80;63.50
68719;DHT22;55696;52.138;5.444;2023-01-31T17:58:44;10.80;64.10
68719;DHT22;55696;52.138;5.444;2023-01-31T18:01:11;10.80;63.40
68719;DHT22;55696;52.138;5.444;2023-01-31T18:03:40;10.70;63.30